Time;durP1;ratioP1;P1;durP2;ratioP2;P2;SDS_P1;SDS_P2;PMS_P1;PMS_P2;Temp;Humidity;BMP_temperature;BMP_pressure;BME280_temperature;BME280_humidity;BME280_pressure;Samples;Min_cycle;Max_cycle;Signal;HPM_P1;HPM_P2
2024/01/19 00:01:42;;;;;;;30.00;11.60;;;;;;;-3.18;81.54;99921.32;105071;1259;74171;-59
2024/01/19 00:04:08;;;;;;;23.90;9.30;;;;;;;-3.13;81.48;99919.80;104960;1259;138439;-60
2024/01/19 00:06:38;;;;;;;23.40;8.00;;;;;;;-3.07;81.50;99921.69;105118;1257;73556;-59
2024/01/19 00:09:05;;;;;;;14.00;7.10;;;;;;;-3.04;81.32;99926.35;109070;1254;138366;-59
2024/01/19 00:11:32;;;;;;;20.20;7.20;;;;;;;-2.99;81.45;99926.89;109196;1254;58247;-58
2024/01/19 00:13:58;;;;;;;17.40;6.70;;;;;;;-2.96;81.29;99930.66;109264;1254;73837;-59
2024/01/19 00:16:26;;;;;;;48.10;17.70;;;;;;;-2.94;81.21;99933.56;109104;1254;138707;-60
2024/01/19 00:18:52;;;;;;;14.90;7.80;;;;;;;-2.92;80.93;99934.18;109216;1255;71508;-60
2024/01/19 00:21:19;;;;;;;14.20;6.80;;;;;;;-2.91;80.97;99936.79;109108;1256;138348;-59
2024/01/19 00:23:47;;;;;;;15.50;7.60;;;;;;;-2.89;81.05;99943.47;108955;1257;58914;-58
2024/01/19 00:26:13;;;;;;;14.20;6.40;;;;;;;-2.87;80.97;99942.56;106775;1256;74518;-59
2024/01/19 00:28:40;;;;;;;13.30;6.10;;;;;;;-2.87;80.84;99942.27;104724;1256;138211;-60
2024/01/19 00:31:07;;;;;;;9.60;6.40;;;;;;;-2.88;80.62;99939.45;104921;1257;72443;-60
2024/01/19 00:33:33;;;;;;;15.00;6.20;;;;;;;-2.88;80.80;99943.21;104687;1261;138628;-61
2024/01/19 00:36:00;;;;;;;10.60;5.00;;;;;;;-2.87;80.83;99946.69;104818;1259;60952;-59
2024/01/19 00:38:27;;;;;;;10.80;5.60;;;;;;;-2.87;80.64;99950.46;104846;1260;74100;-59
2024/01/19 00:40:54;;;;;;;10.70;5.60;;;;;;;-2.89;80.57;99951.71;104842;1254;138223;-60
2024/01/19 00:43:21;;;;;;;11.90;5.30;;;;;;;-2.91;80.43;99952.93;104744;1260;71592;-60
2024/01/19 00:45:47;;;;;;;11.70;6.60;;;;;;;-2.95;80.50;99960.80;104783;1262;137886;-60
2024/01/19 00:48:14;;;;;;;13.50;7.10;;;;;;;-2.99;80.46;99961.88;104914;1262;60578;-60
2024/01/19 00:50:41;;;;;;;15.10;5.80;;;;;;;-3.02;80.54;99960.83;104960;1259;73264;-60
2024/01/19 00:53:07;;;;;;;9.10;5.50;;;;;;;-3.06;80.40;99961.27;104770;1259;137690;-68
2024/01/19 00:55:34;;;;;;;12.90;6.00;;;;;;;-3.09;80.46;99963.64;104881;1260;73668;-60
2024/01/19 00:58:01;;;;;;;13.00;6.30;;;;;;;-3.13;80.46;99963.70;104823;1254;137804;-60
2024/01/19 01:00:28;;;;;;;17.90;6.90;;;;;;;-3.18;80.49;99969.42;105145;1260;60651;-59
2024/01/19 01:02:57;;;;;;;12.50;5.50;;;;;;;-3.19;80.45;99976.85;105002;1260;139116;-60
2024/01/19 01:05:23;;;;;;;12.50;5.60;;;;;;;-3.18;80.78;99977.44;105086;1260;66696;-59
2024/01/19 01:07:50;;;;;;;12.40;6.00;;;;;;;-3.19;80.80;99982.70;105013;1259;71717;-59
2024/01/19 01:10:16;;;;;;;12.90;5.60;;;;;;;-3.18;80.94;99989.27;104868;1260;138235;-59
2024/01/19 01:12:43;;;;;;;11.70;5.60;;;;;;;-3.17;80.98;99991.41;105032;1257;60569;-69
2024/01/19 01:15:10;;;;;;;10.90;4.90;;;;;;;-3.15;81.06;99991.03;105023;1259;138165;-69
2024/01/19 01:17:36;;;;;;;8.50;4.90;;;;;;;-3.13;81.19;99991.05;105135;1256;64230;-69
2024/01/19 01:20:04;;;;;;;12.00;5.00;;;;;;;-3.09;81.27;99993.52;105023;1258;73368;-68
2024/01/19 01:22:32;;;;;;;14.00;5.00;;;;;;;-3.04;81.39;99995.54;104887;1258;138555;-68
2024/01/19 01:24:59;;;;;;;15.30;4.80;;;;;;;-3.01;81.31;99999.88;109151;1254;59596;-69
2024/01/19 01:27:26;;;;;;;11.50;5.20;;;;;;;-2.99;81.42;99992.13;109034;1257;139059;-68
2024/01/19 01:29:52;;;;;;;10.80;4.70;;;;;;;-2.96;81.42;99995.42;109208;1254;67410;-60
2024/01/19 01:32:19;;;;;;;13.00;4.70;;;;;;;-2.93;81.39;99998.67;109203;1255;72820;-60
2024/01/19 01:34:46;;;;;;;11.90;4.70;;;;;;;-2.88;81.36;99998.10;109030;1254;138717;-70
2024/01/19 01:37:12;;;;;;;17.00;5.10;;;;;;;-2.82;81.51;99994.92;108989;1254;58798;-69
2024/01/19 01:39:39;;;;;;;11.00;4.20;;;;;;;-2.78;81.39;99996.44;108445;1260;138324;-60
2024/01/19 01:42:06;;;;;;;13.80;4.60;;;;;;;-2.76;81.29;99998.77;104786;1262;66356;-60
2024/01/19 01:44:32;;;;;;;12.30;4.20;;;;;;;-2.74;81.22;100005.74;108797;1258;72880;-60
2024/01/19 01:46:59;;;;;;;7.80;3.70;;;;;;;-2.75;81.16;100006.41;104920;1257;139707;-59
2024/01/19 01:49:26;;;;;;;14.00;4.80;;;;;;;-2.75;81.08;100009.13;105044;1259;60556;-59
2024/01/19 01:51:52;;;;;;;8.20;4.40;;;;;;;-2.76;81.11;100019.23;104795;1257;138481;-60
2024/01/19 01:54:19;;;;;;;14.70;4.40;;;;;;;-2.78;81.04;100024.05;104907;1255;65218;-69
2024/01/19 01:56:46;;;;;;;12.80;4.50;;;;;;;-2.79;81.07;100031.73;104887;1269;71777;-67
2024/01/19 01:59:13;;;;;;;12.00;3.90;;;;;;;-2.79;81.06;100040.49;104846;1263;138355;-59
2024/01/19 02:01:40;;;;;;;14.00;5.00;;;;;;;-2.79;81.07;100040.80;104766;1257;60470;-59
2024/01/19 02:04:08;;;;;;;7.60;3.80;;;;;;;-2.77;81.00;100041.11;104735;1260;138731;-68
2024/01/19 02:06:34;;;;;;;10.20;4.90;;;;;;;-2.77;81.16;100037.00;104991;1261;67001;-68
2024/01/19 02:09:01;;;;;;;10.60;5.30;;;;;;;-2.77;81.07;100038.36;104913;1259;138968;-66
2024/01/19 02:11:28;;;;;;;13.60;4.80;;;;;;;-2.78;81.02;100042.95;104793;1263;61345;-68
2024/01/19 02:13:54;;;;;;;13.80;4.60;;;;;;;-2.78;81.10;100050.30;105027;1260;61245;-69
2024/01/19 02:16:21;;;;;;;12.10;4.30;;;;;;;-2.78;81.23;100052.05;104858;1259;137903;-59
2024/01/19 02:18:48;;;;;;;20.00;4.50;;;;;;;-2.79;81.18;100047.30;105071;1254;64630;-60
2024/01/19 02:21:15;;;;;;;11.90;4.10;;;;;;;-2.81;81.12;100047.88;104739;1263;138194;-60
2024/01/19 02:24:02;;;;;;;16.70;4.30;;;;;;;-2.85;81.05;100045.75;104989;1265;61267;-59
2024/01/19 02:26:33;;;;;;;11.60;4.30;;;;;;;-2.88;80.96;100046.05;109112;1260;60680;-59
2024/01/19 02:29:00;;;;;;;11.60;4.60;;;;;;;-2.91;80.86;100049.60;108997;1257;139496;-58
2024/01/19 02:31:26;;;;;;;10.30;4.30;;;;;;;-2.95;80.87;100055.19;109037;1259;64777;-68
2024/01/19 02:33:53;;;;;;;10.50;4.40;;;;;;;-2.98;80.90;100059.09;108968;1254;138525;-68
2024/01/19 02:36:20;;;;;;;10.60;4.60;;;;;;;-3.00;80.93;100062.27;109194;1254;59299;-67
2024/01/19 02:38:46;;;;;;;16.10;5.10;;;;;;;-3.01;80.85;100063.01;109234;1254;59016;-70
2024/01/19 02:41:13;;;;;;;13.30;4.90;;;;;;;-3.02;80.90;100065.34;107560;1259;138324;-69
2024/01/19 02:43:40;;;;;;;7.50;3.70;;;;;;;-3.02;80.89;100069.30;105075;1259;66866;-70
2024/01/19 02:46:07;;;;;;;12.10;4.50;;;;;;;-3.03;80.96;100071.85;104898;1261;138332;-69
2024/01/19 02:48:34;;;;;;;15.80;5.70;;;;;;;-3.02;80.81;100072.55;109153;1259;59041;-70
2024/01/19 02:51:00;;;;;;;10.60;4.90;;;;;;;-3.02;80.80;100073.58;108847;1255;138796;-70
2024/01/19 02:53:27;;;;;;;11.50;5.20;;;;;;;-3.04;80.87;100078.61;107912;1260;74817;-69
2024/01/19 02:55:54;;;;;;;11.00;5.30;;;;;;;-3.03;81.04;100078.33;105003;1260;65496;-69
2024/01/19 02:58:20;;;;;;;15.00;5.20;;;;;;;-3.04;80.97;100080.04;104805;1260;138439;-70
2024/01/19 03:00:47;;;;;;;18.20;5.90;;;;;;;-3.04;80.92;100079.49;105049;1260;61243;-70
2024/01/19 03:03:13;;;;;;;11.50;5.10;;;;;;;-3.04;80.97;100078.44;104845;1255;139052;-69
2024/01/19 03:05:40;;;;;;;14.80;5.80;;;;;;;-3.06;80.94;100080.53;109122;1254;73688;-70
2024/01/19 03:08:07;;;;;;;14.30;5.50;;;;;;;-3.07;80.92;100085.27;109106;1259;65362;-68
2024/01/19 03:10:34;;;;;;;12.10;5.70;;;;;;;-3.08;80.88;100087.77;109078;1254;139036;-58
2024/01/19 03:13:00;;;;;;;16.10;5.70;;;;;;;-3.10;80.90;100091.96;109132;1255;58980;-59
2024/01/19 03:15:27;;;;;;;15.80;6.40;;;;;;;-3.11;80.93;100092.19;108850;1254;139335;-67
2024/01/19 03:17:54;;;;;;;15.40;6.70;;;;;;;-3.11;80.99;100099.92;109181;1254;74457;-68
2024/01/19 03:20:20;;;;;;;13.10;6.20;;;;;;;-3.11;80.98;100100.27;109172;1254;67521;-59
2024/01/19 03:22:47;;;;;;;17.00;6.70;;;;;;;-3.11;81.01;100100.48;109050;1254;138604;-67
2024/01/19 03:25:14;;;;;;;14.20;4.80;;;;;;;-3.10;81.06;100102.73;109150;1259;58987;-59
2024/01/19 03:27:40;;;;;;;14.00;5.50;;;;;;;-3.10;81.02;100107.93;109123;1254;138315;-57
2024/01/19 03:30:07;;;;;;;12.90;5.30;;;;;;;-3.08;81.01;100109.38;109149;1254;75321;-59
2024/01/19 03:32:34;;;;;;;13.30;5.80;;;;;;;-3.09;80.93;100109.16;109195;1255;66399;-59
2024/01/19 03:35:01;;;;;;;16.30;6.20;;;;;;;-3.11;80.87;100110.56;109061;1255;138877;-58
2024/01/19 03:37:28;;;;;;;15.00;6.00;;;;;;;-3.14;80.82;100108.52;109181;1254;59225;-58
2024/01/19 03:39:54;;;;;;;14.80;6.30;;;;;;;-3.16;80.85;100105.96;109087;1254;138692;-59
2024/01/19 03:42:21;;;;;;;17.40;6.00;;;;;;;-3.17;80.89;100103.70;109141;1254;74106;-58
2024/01/19 03:44:47;;;;;;;14.30;6.20;;;;;;;-3.19;80.85;100097.52;109137;1254;65078;-59
2024/01/19 03:47:14;;;;;;;13.70;6.00;;;;;;;-3.21;80.83;100100.79;109126;1254;137882;-58
2024/01/19 03:49:41;;;;;;;15.60;6.70;;;;;;;-3.24;80.93;100105.88;109144;1254;59281;-59
2024/01/19 03:52:08;;;;;;;15.70;6.50;;;;;;;-3.26;81.01;100099.27;109061;1254;138515;-59
2024/01/19 03:54:35;;;;;;;18.40;6.80;;;;;;;-3.26;80.98;100098.55;109118;1259;73727;-61
2024/01/19 03:57:03;;;;;;;18.90;6.40;;;;;;;-3.27;81.02;100104.02;108873;1254;139064;-59
2024/01/19 03:59:30;;;;;;;18.70;6.10;;;;;;;-3.27;81.06;100099.83;109175;1256;73062;-59
2024/01/19 04:01:57;;;;;;;15.40;7.60;;;;;;;-3.27;81.06;100101.21;109148;1260;59158;-68
2024/01/19 04:04:24;;;;;;;14.70;6.50;;;;;;;-3.27;81.08;100100.04;109044;1254;138692;-67
2024/01/19 04:06:52;;;;;;;13.40;6.60;;;;;;;-3.28;81.00;100102.08;109145;1254;74294;-58
2024/01/19 04:09:19;;;;;;;15.70;6.20;;;;;;;-3.25;81.13;100104.80;109082;1254;139282;-58
2024/01/19 04:11:46;;;;;;;15.70;6.40;;;;;;;-3.24;80.96;100111.21;106033;1258;71349;-59
2024/01/19 04:14:12;;;;;;;16.80;6.50;;;;;;;-3.24;81.01;100114.15;105040;1256;61275;-59
2024/01/19 04:16:39;;;;;;;16.10;6.70;;;;;;;-3.25;81.15;100118.89;104973;1259;138875;-59
2024/01/19 04:19:06;;;;;;;14.80;5.90;;;;;;;-3.25;81.10;100126.61;105117;1259;73729;-59
2024/01/19 04:21:32;;;;;;;15.50;6.90;;;;;;;-3.27;80.91;100132.50;104706;1254;138823;-59
2024/01/19 04:23:59;;;;;;;17.90;7.00;;;;;;;-3.28;81.01;100136.37;105092;1254;72720;-59
2024/01/19 04:26:27;;;;;;;20.40;6.60;;;;;;;-3.31;80.94;100135.49;104960;1258;61292;-59
2024/01/19 04:28:55;;;;;;;15.30;6.90;;;;;;;-3.32;81.10;100135.59;108994;1254;138238;-59
2024/01/19 04:31:22;;;;;;;14.80;6.70;;;;;;;-3.34;81.01;100141.30;109180;1254;73693;-59
2024/01/19 04:33:48;;;;;;;23.50;6.40;;;;;;;-3.36;80.98;100142.17;109093;1254;137695;-60
2024/01/19 04:36:17;;;;;;;16.90;7.00;;;;;;;-3.37;81.05;100141.60;108961;1254;73311;-60
2024/01/19 04:38:45;;;;;;;18.10;7.40;;;;;;;-3.37;81.06;100137.08;109205;1254;59033;-59
2024/01/19 04:41:11;;;;;;;15.10;7.90;;;;;;;-3.39;80.94;100137.47;109063;1257;138688;-59
2024/01/19 04:43:38;;;;;;;15.90;7.60;;;;;;;-3.42;80.89;100139.83;109131;1254;75107;-59
2024/01/19 04:46:05;;;;;;;16.50;7.20;;;;;;;-3.44;80.89;100140.16;109057;1254;139483;-59
2024/01/19 04:48:32;;;;;;;16.70;8.00;;;;;;;-3.47;80.81;100142.77;109175;1254;71419;-59
2024/01/19 04:50:58;;;;;;;15.80;7.30;;;;;;;-3.49;80.78;100148.77;109069;1254;138991;-60
2024/01/19 04:53:25;;;;;;;20.20;7.70;;;;;;;-3.51;80.82;100148.31;108944;1254;59989;-59
2024/01/19 04:55:52;;;;;;;16.40;7.10;;;;;;;-3.51;80.81;100151.18;108974;1254;74597;-59
2024/01/19 04:58:18;;;;;;;15.40;8.00;;;;;;;-3.50;80.81;100159.67;105295;1255;138491;-60
2024/01/19 05:00:46;;;;;;;20.80;8.30;;;;;;;-3.52;80.78;100164.71;104953;1260;72340;-59
2024/01/19 05:03:12;;;;;;;21.50;9.10;;;;;;;-3.54;80.66;100170.25;104925;1254;138714;-60
2024/01/19 05:05:39;;;;;;;22.90;8.50;;;;;;;-3.55;80.67;100170.64;104961;1260;61293;-59
2024/01/19 05:08:06;;;;;;;17.50;8.50;;;;;;;-3.57;80.63;100175.13;104978;1254;75629;-68
2024/01/19 05:10:34;;;;;;;18.10;8.70;;;;;;;-3.58;80.63;100174.40;104739;1260;139980;-69
2024/01/19 05:13:03;;;;;;;23.20;9.30;;;;;;;-3.59;80.51;100173.27;104957;1259;71713;-68
2024/01/19 05:15:29;;;;;;;17.70;8.30;;;;;;;-3.61;80.55;100172.80;104904;1256;138340;-68
2024/01/19 05:17:57;;;;;;;20.00;8.50;;;;;;;-3.63;80.56;100176.09;104997;1259;61250;-66
2024/01/19 05:20:24;;;;;;;20.10;9.60;;;;;;;-3.65;80.47;100176.57;105039;1254;75163;-66
2024/01/19 05:22:50;;;;;;;21.70;9.60;;;;;;;-3.69;80.52;100175.46;104782;1258;137850;-59
2024/01/19 05:25:18;;;;;;;20.30;9.80;;;;;;;-3.73;80.43;100175.16;104872;1254;72474;-59
2024/01/19 05:27:45;;;;;;;18.80;8.70;;;;;;;-3.77;80.44;100175.25;104724;1260;139624;-58
2024/01/19 05:30:13;;;;;;;21.80;9.00;;;;;;;-3.81;80.41;100173.40;108990;1257;61098;-59
2024/01/19 05:32:40;;;;;;;20.10;8.30;;;;;;;-3.85;80.38;100176.23;109058;1256;72662;-60
2024/01/19 05:35:07;;;;;;;15.30;7.70;;;;;;;-3.87;80.44;100180.13;108895;1257;138839;-59
2024/01/19 05:37:34;;;;;;;21.00;9.30;;;;;;;-3.91;80.34;100182.83;109015;1255;70518;-59
2024/01/19 05:40:00;;;;;;;18.20;8.70;;;;;;;-3.92;80.31;100187.87;108329;1257;138755;-64
2024/01/19 05:42:27;;;;;;;25.30;9.30;;;;;;;-3.92;80.40;100188.19;104757;1264;61326;-65
2024/01/19 05:44:54;;;;;;;17.50;8.20;;;;;;;-3.91;80.40;100187.76;104805;1257;74892;-65
2024/01/19 05:47:21;;;;;;;23.30;9.40;;;;;;;-3.91;80.50;100184.16;104942;1260;66697;-65
2024/01/19 05:49:47;;;;;;;23.90;8.90;;;;;;;-3.93;80.31;100185.95;104701;1260;70699;-59
2024/01/19 05:52:14;;;;;;;19.00;8.70;;;;;;;-3.95;80.24;100184.23;104686;1256;139144;-65
2024/01/19 05:54:41;;;;;;;24.70;9.80;;;;;;;-3.98;80.24;100185.20;104947;1258;61355;-65
2024/01/19 05:57:09;;;;;;;21.50;9.90;;;;;;;-4.00;80.21;100188.14;104888;1257;139233;-65
2024/01/19 05:59:38;;;;;;;20.30;8.80;;;;;;;-4.00;80.34;100189.85;105074;1259;66583;-66
2024/01/19 06:02:05;;;;;;;22.70;9.10;;;;;;;-4.01;80.32;100189.30;105517;1254;71124;-65
2024/01/19 06:04:37;;;;;;;24.10;8.40;;;;;;;-4.01;80.28;100193.35;104786;1255;137753;-66
2024/01/19 06:07:04;;;;;;;23.70;9.60;;;;;;;-4.02;80.37;100195.67;105043;1259;61142;-67
2024/01/19 06:09:31;;;;;;;25.40;9.60;;;;;;;-4.05;80.24;100196.70;104763;1257;138230;-67
2024/01/19 06:11:57;;;;;;;18.30;9.00;;;;;;;-4.07;80.27;100195.30;104768;1262;65395;-66
2024/01/19 06:14:24;;;;;;;18.90;9.00;;;;;;;-4.08;80.29;100201.08;104933;1261;73627;-67
2024/01/19 06:16:52;;;;;;;20.10;8.60;;;;;;;-4.10;80.30;100204.86;104811;1256;138314;-63
2024/01/19 06:19:19;;;;;;;25.70;9.50;;;;;;;-4.13;80.23;100208.09;104992;1259;62238;-60
2024/01/19 06:21:46;;;;;;;23.50;10.10;;;;;;;-4.15;80.31;100205.42;104832;1257;139599;-59
2024/01/19 06:24:16;;;;;;;21.00;9.60;;;;;;;-4.17;80.36;100203.15;104988;1255;66465;-60
2024/01/19 06:26:46;;;;;;;27.70;10.20;;;;;;;-4.18;80.41;100204.50;105034;1254;73371;-59
2024/01/19 06:29:13;;;;;;;37.30;11.80;;;;;;;-4.18;80.41;100199.17;104980;1254;139795;-60
2024/01/19 06:31:45;;;;;;;79.70;33.90;;;;;;;-4.17;80.40;100197.15;105101;1260;61193;-60
2024/01/19 06:34:12;;;;;;;84.30;35.90;;;;;;;-4.16;80.50;100196.72;104689;1257;139670;-60
2024/01/19 06:36:43;;;;;;;64.80;31.40;;;;;;;-4.16;80.52;100194.71;104820;1255;65366;-60
2024/01/19 06:39:09;;;;;;;53.70;26.50;;;;;;;-4.15;80.56;100191.70;104897;1255;138866;-60
2024/01/19 06:41:40;;;;;;;33.90;16.20;;;;;;;-4.10;80.63;100187.09;104952;1260;61119;-59
2024/01/19 06:44:09;;;;;;;211.20;78.20;;;;;;;-4.08;80.66;100181.90;107521;1254;60166;-65
2024/01/19 06:46:36;;;;;;;146.50;62.70;;;;;;;-4.05;80.67;100179.52;108629;1254;138836;-65
2024/01/19 06:49:02;;;;;;;45.50;20.90;;;;;;;-4.01;80.69;100178.99;105007;1254;67192;-65
2024/01/19 06:51:29;;;;;;;41.80;18.10;;;;;;;-3.98;80.70;100178.19;104952;1254;139309;-60
2024/01/19 06:53:56;;;;;;;29.00;13.40;;;;;;;-3.94;80.66;100180.50;105158;1254;59686;-61
2024/01/19 06:56:23;;;;;;;26.80;13.00;;;;;;;-3.92;80.54;100187.17;105073;1258;61244;-66
2024/01/19 06:58:50;;;;;;;33.60;18.80;;;;;;;-3.89;80.66;100190.32;104612;1255;138018;-61
2024/01/19 07:01:16;;;;;;;22.10;10.80;;;;;;;-3.86;80.69;100209.90;104994;1255;65549;-59
2024/01/19 07:03:43;;;;;;;28.80;18.80;;;;;;;-3.83;80.66;100215.94;104940;1258;138921;-60
2024/01/19 07:06:10;;;;;;;37.50;21.80;;;;;;;-3.76;80.85;100224.86;104938;1254;61282;-65
2024/01/19 07:08:36;;;;;;;24.80;14.70;;;;;;;-3.61;81.26;100235.05;105041;1254;61148;-65
2024/01/19 07:11:03;;;;;;;23.00;12.50;;;;;;;-3.41;81.31;100232.55;104976;1259;138440;-65
2024/01/19 07:13:29;;;;;;;20.00;9.70;;;;;;;-3.20;81.54;100235.94;104944;1257;65426;-60
2024/01/19 07:15:56;;;;;;;18.20;9.70;;;;;;;-2.98;81.72;100240.59;104893;1261;139094;-65
2024/01/19 07:18:23;;;;;;;20.20;8.80;;;;;;;-2.77;81.81;100240.15;106078;1259;60887;-60
2024/01/19 07:20:50;;;;;;;21.90;11.90;;;;;;;-2.57;81.73;100239.77;105096;1259;61704;-59
2024/01/19 07:23:16;;;;;;;22.30;11.80;;;;;;;-2.39;81.58;100243.27;104865;1254;138760;-60
2024/01/19 07:25:43;;;;;;;25.40;13.30;;;;;;;-2.24;81.32;100239.66;105017;1259;67289;-60
2024/01/19 07:28:10;;;;;;;25.50;12.50;;;;;;;-2.10;81.18;100233.33;104903;1258;139048;-60
2024/01/19 07:30:38;;;;;;;20.50;12.30;;;;;;;-1.97;81.17;100226.47;104842;1256;61288;-61
2024/01/19 07:33:05;;;;;;;35.30;20.70;;;;;;;-1.84;80.92;100223.59;106526;1259;139344;-66
2024/01/19 07:35:32;;;;;;;15.90;9.70;;;;;;;-1.69;80.92;100223.84;105210;1254;75505;-61
2024/01/19 07:37:58;;;;;;;18.80;12.60;;;;;;;-1.59;80.56;100222.11;104845;1261;66984;-59
2024/01/19 07:40:26;;;;;;;15.90;8.50;;;;;;;-1.54;80.36;100223.56;105003;1259;137998;-59
2024/01/19 07:42:53;;;;;;;15.30;7.80;;;;;;;-1.58;80.07;100219.76;105121;1259;61337;-59
2024/01/19 07:45:20;;;;;;;18.60;8.50;;;;;;;-1.59;79.77;100218.98;104995;1259;138403;-59
2024/01/19 07:47:46;;;;;;;17.40;9.40;;;;;;;-1.62;79.77;100222.40;105148;1254;73902;-60
2024/01/19 07:50:13;;;;;;;15.30;8.30;;;;;;;-1.69;79.53;100224.70;105036;1254;66265;-59
2024/01/19 07:52:40;;;;;;;12.30;7.30;;;;;;;-1.76;79.41;100225.78;104998;1254;138466;-65
2024/01/19 07:55:07;;;;;;;24.70;9.60;;;;;;;-1.79;79.39;100224.73;105059;1259;61381;-65
2024/01/19 07:57:34;;;;;;;15.30;8.00;;;;;;;-1.76;79.49;100225.77;105085;1259;139328;-66
2024/01/19 08:00:02;;;;;;;16.90;9.00;;;;;;;-1.74;79.47;100226.25;105104;1254;73940;-60
2024/01/19 08:02:29;;;;;;;14.70;6.80;;;;;;;-1.71;79.54;100226.46;104974;1258;67639;-59
2024/01/19 08:04:56;;;;;;;12.30;5.60;;;;;;;-1.62;79.78;100221.57;105012;1254;138641;-59
2024/01/19 08:07:22;;;;;;;14.40;6.90;;;;;;;-1.49;79.81;100225.98;105146;1258;61349;-59
2024/01/19 08:09:49;;;;;;;12.60;7.10;;;;;;;-1.43;79.72;100229.80;104945;1254;138315;-58
2024/01/19 08:12:16;;;;;;;14.00;6.40;;;;;;;-1.35;79.63;100230.82;104895;1260;74111;-59
2024/01/19 08:14:43;;;;;;;16.60;6.00;;;;;;;-1.29;79.61;100220.21;105092;1254;65787;-59
2024/01/19 08:17:10;;;;;;;10.30;5.20;;;;;;;-1.24;79.40;100228.11;104921;1256;138072;-60
2024/01/19 08:19:36;;;;;;;12.40;5.90;;;;;;;-1.29;79.06;100215.91;104811;1257;61227;-60
2024/01/19 08:22:03;;;;;;;11.80;5.90;;;;;;;-1.36;78.97;100218.38;105021;1254;141338;-59
2024/01/19 08:24:30;;;;;;;15.50;10.40;;;;;;;-1.40;79.00;100231.73;105114;1254;75377;-60
2024/01/19 08:26:56;;;;;;;36.50;18.80;;;;;;;-1.41;78.99;100226.18;104958;1254;139221;-59
2024/01/19 08:29:23;;;;;;;27.30;14.40;;;;;;;-1.42;78.83;100228.15;104755;1254;72011;-59
2024/01/19 08:31:51;;;;;;;44.90;23.60;;;;;;;-1.42;78.96;100233.12;104988;1254;61333;-59
2024/01/19 08:34:17;;;;;;;24.80;11.60;;;;;;;-1.40;79.01;100236.56;106841;1254;138799;-65
2024/01/19 08:36:44;;;;;;;15.30;8.50;;;;;;;-1.39;78.89;100237.02;105125;1259;75379;-66
2024/01/19 08:39:10;;;;;;;17.90;11.60;;;;;;;-1.38;78.97;100238.08;104971;1260;138022;-59
2024/01/19 08:41:43;;;;;;;13.90;8.00;;;;;;;-1.34;78.90;100239.82;104987;1257;73983;-65
2024/01/19 08:44:10;;;;;;;13.70;7.60;;;;;;;-1.31;78.95;100244.69;105137;1257;61323;-65
2024/01/19 08:46:44;;;;;;;12.60;7.20;;;;;;;-1.28;78.96;100246.74;104811;1256;138209;-66
2024/01/19 08:49:11;;;;;;;14.70;6.60;;;;;;;-1.23;79.15;100255.52;105255;1254;74255;-65
2024/01/19 08:51:38;;;;;;;22.20;7.80;;;;;;;-1.20;79.07;100260.24;104893;1259;138440;-59
2024/01/19 08:54:05;;;;;;;17.20;6.40;;;;;;;-1.16;78.87;100268.53;104854;1262;71228;-59
2024/01/19 08:56:32;;;;;;;13.80;6.30;;;;;;;-1.13;78.94;100275.42;108196;1254;61384;-65
2024/01/19 08:58:59;;;;;;;11.90;5.70;;;;;;;-1.10;78.77;100279.79;105073;1255;138415;-66
2024/01/19 09:01:31;;;;;;;13.20;5.90;;;;;;;-1.04;78.84;100280.13;105098;1255;73722;-65
2024/01/19 09:03:58;;;;;;;12.50;5.60;;;;;;;-0.99;78.82;100276.52;105045;1254;138553;-60
2024/01/19 09:06:24;;;;;;;17.40;6.90;;;;;;;-0.92;78.70;100286.23;104965;1261;73248;-66
2024/01/19 09:08:51;;;;;;;14.70;6.60;;;;;;;-0.82;78.98;100291.88;105198;1257;61129;-65
2024/01/19 09:11:18;;;;;;;14.70;6.10;;;;;;;-0.69;78.78;100293.04;105208;1254;137807;-60
2024/01/19 09:13:44;;;;;;;20.90;7.00;;;;;;;-0.61;78.94;100284.39;104738;1254;74664;-60
2024/01/19 09:16:11;;;;;;;14.60;6.80;;;;;;;-0.57;78.63;100286.51;104969;1260;138319;-60
2024/01/19 09:18:38;;;;;;;12.00;5.80;;;;;;;-0.55;78.43;100289.08;105085;1257;73560;-66
2024/01/19 09:21:05;;;;;;;12.70;6.00;;;;;;;-0.45;78.62;100303.14;104976;1254;138234;-65
2024/01/19 09:23:32;;;;;;;11.40;5.10;;;;;;;-0.31;78.67;100302.59;104207;1259;1347738;-65
2024/01/19 09:25:58;;;;;;;15.60;6.10;;;;;;;-0.24;78.37;100298.73;105099;1258;75328;-65
2024/01/19 09:28:25;;;;;;;9.80;5.60;;;;;;;-0.24;78.12;100295.60;105007;1258;138553;-59
2024/01/19 09:30:52;;;;;;;14.90;6.50;;;;;;;-0.23;78.15;100301.18;105146;1259;72032;-65
2024/01/19 09:33:19;;;;;;;11.80;6.20;;;;;;;-0.24;78.03;100294.77;105078;1254;138406;-60
2024/01/19 09:35:46;;;;;;;12.90;6.00;;;;;;;-0.26;77.88;100292.77;105174;1256;61193;-58
2024/01/19 09:38:12;;;;;;;11.80;6.30;;;;;;;-0.26;77.67;100292.06;105062;1254;75665;-59
2024/01/19 09:40:43;;;;;;;11.70;5.70;;;;;;;-0.26;77.69;100287.42;105040;1258;138707;-59
2024/01/19 09:43:11;;;;;;;13.00;5.70;;;;;;;-0.27;77.63;100293.05;105092;1254;74814;-59
2024/01/19 09:45:43;;;;;;;10.50;5.50;;;;;;;-0.27;77.68;100300.79;109101;1254;137976;-60
2024/01/19 09:48:26;;;;;;;10.20;5.70;;;;;;;-0.25;77.75;100307.80;106662;1258;61566;-65
2024/01/19 09:50:55;;;;;;;13.70;5.50;;;;;;;-0.22;77.64;100306.61;105090;1255;75678;-65
2024/01/19 09:53:32;;;;;;;15.70;6.90;;;;;;;-0.22;77.51;100302.85;104932;1255;66538;-58
2024/01/19 09:55:59;;;;;;;14.20;6.60;;;;;;;-0.20;77.37;100314.86;108940;1254;73925;-59
2024/01/19 09:58:27;;;;;;;14.70;6.40;;;;;;;-0.17;77.58;100328.45;109083;1254;138465;-59
2024/01/19 10:00:54;;;;;;;20.80;7.90;;;;;;;-0.12;77.80;100326.17;109263;1254;60430;-59
2024/01/19 10:03:22;;;;;;;15.20;6.40;;;;;;;-0.05;77.59;100331.61;108870;1254;139174;-59
2024/01/19 10:05:51;;;;;;;11.20;6.20;;;;;;;0.03;77.48;100333.64;108992;1254;66102;-59
2024/01/19 10:08:17;;;;;;;15.80;6.50;;;;;;;0.11;77.38;100339.30;108950;1254;73721;-59
2024/01/19 10:10:44;;;;;;;13.50;6.30;;;;;;;0.22;77.27;100336.46;109094;1254;138106;-59
2024/01/19 10:13:12;;;;;;;13.60;6.70;;;;;;;0.30;77.28;100346.95;109218;1254;60037;-59
2024/01/19 10:15:38;;;;;;;12.40;6.20;;;;;;;0.38;77.38;100349.54;109119;1254;138722;-59
2024/01/19 10:18:05;;;;;;;16.00;7.40;;;;;;;0.56;77.33;100352.27;108878;1254;66903;-65
2024/01/19 10:20:32;;;;;;;14.70;6.00;;;;;;;0.83;77.56;100352.96;104938;1257;73588;-66
2024/01/19 10:23:20;;;;;;;13.40;6.40;;;;;;;1.02;77.27;100355.11;104717;1254;139310;-66
2024/01/19 10:25:47;;;;;;;11.70;6.20;;;;;;;1.15;77.10;100351.00;105257;1259;61973;-66
2024/01/19 10:28:29;;;;;;;19.40;6.50;;;;;;;1.16;76.62;100353.64;105104;1256;138261;-65
2024/01/19 10:31:22;;;;;;;11.90;5.70;;;;;;;1.13;76.34;100356.27;105154;1256;67290;-66
2024/01/19 10:33:55;;;;;;;16.30;6.50;;;;;;;1.19;76.64;100360.02;104887;1254;137840;-65
2024/01/19 10:36:22;;;;;;;19.10;6.00;;;;;;;1.30;76.55;100361.48;105001;1260;61372;-67
2024/01/19 10:38:48;;;;;;;11.20;6.10;;;;;;;1.39;76.27;100360.08;105103;1258;61254;-66
2024/01/19 10:41:16;;;;;;;17.10;7.40;;;;;;;1.45;76.35;100360.80;105057;1254;137794;-66
2024/01/19 10:43:43;;;;;;;14.40;7.10;;;;;;;1.57;76.39;100362.32;105188;1259;66204;-65
2024/01/19 10:46:20;;;;;;;11.30;6.80;;;;;;;1.63;76.19;100369.04;105010;1254;139304;-66
2024/01/19 10:48:49;;;;;;;17.30;6.80;;;;;;;1.54;75.71;100369.75;105947;1255;61382;-66
2024/01/19 10:51:19;;;;;;;8.90;5.00;;;;;;;1.44;75.67;100369.71;105794;1254;139762;-64
2024/01/19 10:53:47;;;;;;;13.80;6.30;;;;;;;1.32;75.35;100376.00;105184;1254;75298;-66
2024/01/19 10:56:20;;;;;;;11.00;5.80;;;;;;;1.28;75.59;100373.70;105759;1258;67357;-66
2024/01/19 10:58:47;;;;;;;13.10;7.50;;;;;;;1.34;75.87;100374.89;106491;1255;138753;-67
2024/01/19 11:01:15;;;;;;;96.30;36.10;;;;;;;1.38;75.75;100382.88;108139;1256;61369;-66
2024/01/19 11:03:45;;;;;;;109.80;47.30;;;;;;;1.47;75.92;100382.48;105555;1259;137837;-66
2024/01/19 11:06:12;;;;;;;59.00;27.70;;;;;;;1.51;75.79;100385.15;104988;1259;75434;-67
2024/01/19 11:08:39;;;;;;;69.00;34.50;;;;;;;1.52;75.78;100387.26;105002;1259;66382;-66